| time (UTC) | temp C | wind direction | speed KPH | gust KPH | rain 1hr cm | rain 24hr cm | rain mn cm | humidity % | barometer mb |
| 20260906051913 | 12 | 45 | 0.0 | 1.6 | 0.00 | 0.25 | 0.00 | 92 | 1026.8 |
| 20260906050415 | 12 | 268 | 0.0 | 1.6 | 0.00 | 0.25 | 0.00 | 92 | 1026.6 |
| 20260906044915 | 12 | 62 | 0.0 | 1.6 | 0.00 | 0.61 | 0.00 | 92 | 1026.5 |
| 20260906043413 | 12 | 268 | 0.0 | 1.6 | 0.00 | 0.61 | 0.00 | 91 | 1026.4 |
| 20260906041913 | 12 | 45 | 0.0 | 3.2 | 0.00 | 0.61 | 0.00 | 91 | 1026.3 |
| 20260906040413 | 13 | 88 | 1.6 | 3.2 | 0.00 | 0.61 | 0.00 | 91 | 1026.4 |
| 20260906034913 | 13 | 116 | 1.6 | 3.2 | 0.00 | 0.61 | 0.00 | 90 | 1026.1 |
| 20260906033413 | 13 | 116 | 1.6 | 1.6 | 0.00 | 0.61 | 0.00 | 90 | 1026.0 |
| 20260906031913 | 13 | 222 | 1.6 | 3.2 | 0.00 | 0.61 | 0.00 | 90 | 1026.0 |
| 20260906024914 | 13 | 359 | 1.6 | 3.2 | 0.00 | 0.61 | 0.00 | 89 | 1025.9 |
| 20260906023413 | 13 | 313 | 1.6 | 3.2 | 0.00 | 0.61 | 0.00 | 88 | 1025.9 |
| 20260906021914 | 13 | 19 | 0.0 | 1.6 | 0.00 | 0.61 | 0.00 | 88 | 1025.8 |
| 20260906020413 | 14 | 339 | 1.6 | 3.2 | 0.00 | 0.61 | 0.00 | 87 | 1025.8 |
| 20260906014910 | 14 | 359 | 1.6 | 3.2 | 0.00 | 0.61 | 0.00 | 87 | 1026.0 |
| 20260906013410 | 14 | 240 | 1.6 | 3.2 | 0.00 | 0.61 | 0.00 | 87 | 1025.8 |
| 20260906011912 | 14 | 313 | 0.0 | 1.6 | 0.00 | 0.61 | 0.00 | 87 | 1025.8 |
| 20260906004915 | 15 | 45 | 0.0 | 3.2 | 0.00 | 0.61 | 0.00 | 85 | 1025.7 |
| 20260906001915 | 15 | 300 | 3.2 | 4.8 | 0.00 | 0.61 | 0.00 | 85 | 1025.6 |
| 20260906000414 | 15 | 359 | 0.0 | 4.8 | 0.00 | 0.61 | 0.00 | 85 | 1025.4 |
| 20260905234913 | 15 | 222 | 1.6 | 6.4 | 0.00 | 0.61 | 0.00 | 85 | 1025.4 |
| 20260905233413 | 15 | 177 | 1.6 | 6.4 | 0.00 | 0.61 | 0.00 | 85 | 1025.4 |
| 20260905224913 | 15 | 89 | 1.6 | 4.8 | 0.00 | 0.61 | 0.00 | 87 | 1025.3 |
| 20260905223412 | 15 | 313 | 1.6 | 6.4 | 0.00 | 0.61 | 0.00 | 86 | 1025.2 |
| 20260905221911 | 15 | 230 | 0.0 | 3.2 | 0.00 | 0.61 | 0.00 | 85 | 1025.2 |
| 20260905214912 | 16 | 228 | 4.8 | 8.0 | 0.00 | 0.61 | 0.61 | 85 | 1024.8 |
| 20260905213411 | 16 | 251 | 3.2 | 6.4 | 0.00 | 0.61 | 0.61 | 84 | 1024.7 |
| 20260905204912 | 17 | 227 | 4.8 | 8.0 | 0.00 | 0.61 | 0.61 | 81 | 1024.2 |
| 20260905203413 | 17 | 268 | 4.8 | 9.7 | 0.00 | 0.61 | 0.61 | 79 | 1024.2 |
| 20260905201912 | 18 | 233 | 4.8 | 9.7 | 0.00 | 0.61 | 0.61 | 78 | 1024.0 |
| 20260905200413 | 18 | 201 | 6.4 | 24.1 | 0.00 | 0.61 | 0.61 | 78 | 1023.9 |
| 20260905194913 | 18 | 272 | 9.7 | 17.7 | 0.00 | 0.61 | 0.61 | 79 | 1023.6 |
| 20260905191912 | 17 | 244 | 1.6 | 8.0 | 0.00 | 0.61 | 0.61 | 82 | 1022.9 |
| 20260905190412 | 17 | 220 | 6.4 | 9.7 | 0.00 | 0.61 | 0.61 | 82 | 1023.0 |
| 20260905184912 | 17 | 196 | 3.2 | 8.0 | 0.00 | 0.61 | 0.61 | 82 | 1022.9 |
| 20260905183412 | 17 | 214 | 4.8 | 11.3 | 0.00 | 0.61 | 0.61 | 81 | 1022.7 |
| 20260905181913 | 18 | 229 | 6.4 | 11.3 | 0.00 | 0.61 | 0.61 | 81 | 1022.6 |
| 20260905180412 | 18 | 359 | 1.6 | 6.4 | 0.00 | 0.61 | 0.61 | 80 | 1022.5 |
| 20260905174914 | 18 | 211 | 6.4 | 11.3 | 0.00 | 0.61 | 0.61 | 78 | 1022.3 |
| 20260905173413 | 18 | 194 | 3.2 | 6.4 | 0.00 | 0.61 | 0.61 | 77 | 1022.1 |
| 20260905171913 | 19 | 226 | 6.4 | 12.9 | 0.00 | 0.61 | 0.61 | 76 | 1021.9 |
| 20260905164913 | 19 | 208 | 3.2 | 17.7 | 0.00 | 0.61 | 0.61 | 73 | 1022.0 |
| 20260905161914 | 19 | 161 | 4.8 | 16.1 | 0.00 | 0.61 | 0.61 | 69 | 1021.9 |
| 20260905160414 | 19 | 228 | 6.4 | 16.1 | 0.00 | 0.61 | 0.61 | 68 | 1021.7 |
| 20260905154914 | 19 | 263 | 6.4 | 17.7 | 0.00 | 0.61 | 0.61 | 68 | 1021.4 |
| 20260905153414 | 19 | 217 | 8.0 | 17.7 | 0.00 | 0.61 | 0.61 | 68 | 1021.5 |
| 20260905151914 | 19 | 228 | 9.7 | 17.7 | 0.00 | 0.61 | 0.61 | 67 | 1021.5 |
| 20260905150414 | 20 | 159 | 16.1 | 27.4 | 0.00 | 0.61 | 0.61 | 67 | 1021.5 |
| 20260905143413 | 20 | 233 | 4.8 | 17.7 | 0.00 | 0.61 | 0.61 | 69 | 1021.7 |
| 20260905141913 | 20 | 223 | 9.7 | 24.1 | 0.00 | 0.61 | 0.61 | 71 | 1021.8 |
| 20260905140412 | 18 | 302 | 6.4 | 16.1 | 0.00 | 0.61 | 0.61 | 75 | 1021.7 |
| 20260905134912 | 18 | 206 | 4.8 | 19.3 | 0.00 | 0.61 | 0.61 | 78 | 1022.0 |
| 20260905133412 | 17 | 226 | 6.4 | 14.5 | 0.00 | 0.61 | 0.61 | 81 | 1021.9 |
| 20260905130412 | 17 | 228 | 6.4 | 20.9 | 0.00 | 0.61 | 0.61 | 83 | 1021.7 |
| 20260905124913 | 17 | 238 | 4.8 | 11.3 | 0.00 | 0.61 | 0.61 | 82 | 1021.8 |
| 20260905123412 | 17 | 225 | 6.4 | 14.5 | 0.00 | 0.61 | 0.61 | 83 | 1021.8 |
| 20260905121913 | 17 | 261 | 6.4 | 11.3 | 0.00 | 0.61 | 0.61 | 84 | 1021.7 |
| 20260905120412 | 17 | 209 | 6.4 | 9.7 | 0.00 | 0.61 | 0.61 | 86 | 1021.4 |
| 20260905114912 | 16 | 182 | 4.8 | 14.5 | 0.00 | 0.61 | 0.61 | 86 | 1021.5 |
| 20260905111913 | 16 | 19 | 1.6 | 9.7 | 0.03 | 0.61 | 0.61 | 89 | 1021.4 |
| 20260905110413 | 16 | 167 | 3.2 | 9.7 | 0.03 | 0.61 | 0.61 | 87 | 1021.5 |
| 20260905104913 | 16 | 103 | 3.2 | 8.0 | 0.03 | 0.61 | 0.61 | 87 | 1021.4 |
| 20260905103413 | 16 | 229 | 3.2 | 4.8 | 0.03 | 0.58 | 0.58 | 87 | 1021.5 |
| 20260905101912 | 16 | 249 | 3.2 | 8.0 | 0.03 | 0.58 | 0.58 | 88 | 1021.7 |
| 20260905093412 | 16 | 194 | 3.2 | 9.7 | 0.00 | 0.56 | 0.56 | 85 | 1021.1 |
| 20260905091912 | 16 | 145 | 4.8 | 11.3 | 0.00 | 0.56 | 0.56 | 85 | 1021.0 |
| 20260905090414 | 16 | 154 | 3.2 | 8.0 | 0.00 | 0.56 | 0.56 | 86 | 1021.1 |
| 20260905083414 | 15 | 155 | 4.8 | 8.0 | 0.00 | 0.56 | 0.56 | 86 | 1021.0 |
| 20260905081914 | 15 | 177 | 1.6 | 4.8 | 0.00 | 0.56 | 0.56 | 87 | 1021.1 |
| 20260905080412 | 15 | 192 | 1.6 | 4.8 | 0.00 | 0.56 | 0.56 | 88 | 1020.9 |
| 20260905074913 | 14 | 279 | 3.2 | 4.8 | 0.03 | 0.56 | 0.56 | 90 | 1020.8 |
| 20260905073411 | 14 | 359 | 3.2 | 8.0 | 0.15 | 0.56 | 0.56 | 91 | 1021.0 |
| 20260905071912 | 13 | 359 | 3.2 | 8.0 | 0.15 | 0.56 | 0.56 | 91 | 1020.5 |
| 20260905070412 | 13 | 359 | 4.8 | 8.0 | 0.20 | 0.56 | 0.56 | 90 | 1020.5 |
| 20260905064912 | 13 | 138 | 3.2 | 4.8 | 0.20 | 0.53 | 0.53 | 89 | 1020.2 |
| 20260905061914 | 13 | 313 | 1.6 | 4.8 | 0.41 | 0.41 | 0.41 | 87 | 1020.6 |
| 20260905060413 | 13 | 273 | 8.0 | 12.9 | 0.36 | 0.36 | 0.36 | 86 | 1021.1 |
| 20260905054912 | 13 | 313 | 4.8 | 11.3 | 0.33 | 0.33 | 0.33 | 82 | 1020.8 |
| 20260905053412 | 16 | 359 | 4.8 | 27.4 | 0.18 | 0.18 | 0.18 | 72 | 1021.0 |